<?xml version="1.0" encoding="UTF-8" standalone="no" ?>
<gpx xmlns="http://www.topografix.com/GPX/1/1" xmlns:xsi="http://www.w3.org/2001/XMLSchema-instance" xsi:schemaLocation="http://www.topografix.com/GPX/1/1 http://www.topografix.com/GPX/1/1/gpx.xsd" version="1.1" creator="VisuGPX - https://www.visugpx.com">
  <metadata>
    <name>Chateau du Haut Barr</name>
    <desc><![CDATA[Saverne Chateau du Haut Barr]]></desc>
  </metadata>
  <trk>
    <name><![CDATA[ADi2010/07/15_18:06-2]]></name>
    <trkseg>
      <trkpt lat="48.73388" lon="7.34839">
        <ele>271.412354</ele>
        <time>2010-07-15T16:54:13Z</time>
      </trkpt>
      <trkpt lat="48.72941" lon="7.34157">
        <ele>331.693604</ele>
        <time>2010-07-15T16:58:08Z</time>
      </trkpt>
      <trkpt lat="48.72933" lon="7.34139">
        <ele>333.662354</ele>
        <time>2010-07-15T16:58:13Z</time>
      </trkpt>
      <trkpt lat="48.72925" lon="7.3412">
        <ele>334.279541</ele>
        <time>2010-07-15T16:58:17Z</time>
      </trkpt>
      <trkpt lat="48.72917" lon="7.34102">
        <ele>335.131104</ele>
        <time>2010-07-15T16:58:22Z</time>
      </trkpt>
      <trkpt lat="48.72907" lon="7.34088">
        <ele>332.279541</ele>
        <time>2010-07-15T16:59:18Z</time>
      </trkpt>
      <trkpt lat="48.72898" lon="7.34069">
        <ele>330.912354</ele>
        <time>2010-07-15T16:59:43Z</time>
      </trkpt>
      <trkpt lat="48.72886" lon="7.34052">
        <ele>331.467041</ele>
        <time>2010-07-15T16:59:49Z</time>
      </trkpt>
      <trkpt lat="48.72876" lon="7.34035">
        <ele>331.256104</ele>
        <time>2010-07-15T16:59:53Z</time>
      </trkpt>
      <trkpt lat="48.72877" lon="7.34013">
        <ele>331.623291</ele>
        <time>2010-07-15T16:59:56Z</time>
      </trkpt>
      <trkpt lat="48.72874" lon="7.3399">
        <ele>332.607666</ele>
        <time>2010-07-15T17:00:01Z</time>
      </trkpt>
      <trkpt lat="48.7287" lon="7.3397">
        <ele>332.631104</ele>
        <time>2010-07-15T17:00:05Z</time>
      </trkpt>
      <trkpt lat="48.72864" lon="7.33947">
        <ele>332.318604</ele>
        <time>2010-07-15T17:00:09Z</time>
      </trkpt>
      <trkpt lat="48.72856" lon="7.33927">
        <ele>332.467041</ele>
        <time>2010-07-15T17:00:13Z</time>
      </trkpt>
      <trkpt lat="48.72848" lon="7.3391">
        <ele>332.248291</ele>
        <time>2010-07-15T17:00:16Z</time>
      </trkpt>
      <trkpt lat="48.72842" lon="7.33891">
        <ele>331.560791</ele>
        <time>2010-07-15T17:00:19Z</time>
      </trkpt>
      <trkpt lat="48.72837" lon="7.33867">
        <ele>331.677979</ele>
        <time>2010-07-15T17:00:23Z</time>
      </trkpt>
      <trkpt lat="48.72831" lon="7.33848">
        <ele>331.107666</ele>
        <time>2010-07-15T17:00:30Z</time>
      </trkpt>
      <trkpt lat="48.72823" lon="7.33832">
        <ele>329.631104</ele>
        <time>2010-07-15T17:00:46Z</time>
      </trkpt>
      <trkpt lat="48.72816" lon="7.33814">
        <ele>330.693604</ele>
        <time>2010-07-15T17:00:51Z</time>
      </trkpt>
      <trkpt lat="48.72811" lon="7.33795">
        <ele>333.295166</ele>
        <time>2010-07-15T17:01:49Z</time>
      </trkpt>
      <trkpt lat="48.72802" lon="7.33778">
        <ele>332.013916</ele>
        <time>2010-07-15T17:01:55Z</time>
      </trkpt>
      <trkpt lat="48.72792" lon="7.33764">
        <ele>329.881104</ele>
        <time>2010-07-15T17:02:07Z</time>
      </trkpt>
      <trkpt lat="48.72784" lon="7.33746">
        <ele>328.146729</ele>
        <time>2010-07-15T17:02:14Z</time>
      </trkpt>
      <trkpt lat="48.72773" lon="7.3373">
        <ele>326.576416</ele>
        <time>2010-07-15T17:02:19Z</time>
      </trkpt>
      <trkpt lat="48.72763" lon="7.33712">
        <ele>326.888916</ele>
        <time>2010-07-15T17:02:24Z</time>
      </trkpt>
      <trkpt lat="48.72752" lon="7.33695">
        <ele>327.584229</ele>
        <time>2010-07-15T17:02:28Z</time>
      </trkpt>
      <trkpt lat="48.72741" lon="7.33678">
        <ele>327.810791</ele>
        <time>2010-07-15T17:02:32Z</time>
      </trkpt>
      <trkpt lat="48.72728" lon="7.33663">
        <ele>328.256104</ele>
        <time>2010-07-15T17:02:36Z</time>
      </trkpt>
      <trkpt lat="48.72715" lon="7.33649">
        <ele>328.654541</ele>
        <time>2010-07-15T17:02:40Z</time>
      </trkpt>
      <trkpt lat="48.72704" lon="7.33633">
        <ele>328.592041</ele>
        <time>2010-07-15T17:02:44Z</time>
      </trkpt>
      <trkpt lat="48.72691" lon="7.33616">
        <ele>328.045166</ele>
        <time>2010-07-15T17:02:49Z</time>
      </trkpt>
      <trkpt lat="48.72681" lon="7.33604">
        <ele>327.185791</ele>
        <time>2010-07-15T17:02:53Z</time>
      </trkpt>
      <trkpt lat="48.72669" lon="7.33591">
        <ele>327.615479</ele>
        <time>2010-07-15T17:02:57Z</time>
      </trkpt>
      <trkpt lat="48.72657" lon="7.33578">
        <ele>328.185791</ele>
        <time>2010-07-15T17:03:01Z</time>
      </trkpt>
      <trkpt lat="48.72644" lon="7.33566">
        <ele>327.873291</ele>
        <time>2010-07-15T17:03:05Z</time>
      </trkpt>
      <trkpt lat="48.72633" lon="7.33553">
        <ele>327.209229</ele>
        <time>2010-07-15T17:03:09Z</time>
      </trkpt>
      <trkpt lat="48.7262" lon="7.33541">
        <ele>325.881104</ele>
        <time>2010-07-15T17:03:15Z</time>
      </trkpt>
      <trkpt lat="48.72608" lon="7.33529">
        <ele>325.209229</ele>
        <time>2010-07-15T17:03:19Z</time>
      </trkpt>
      <trkpt lat="48.72595" lon="7.33518">
        <ele>325.052979</ele>
        <time>2010-07-15T17:03:23Z</time>
      </trkpt>
      <trkpt lat="48.7258" lon="7.33506">
        <ele>324.810791</ele>
        <time>2010-07-15T17:03:27Z</time>
      </trkpt>
      <trkpt lat="48.72565" lon="7.33494">
        <ele>324.318604</ele>
        <time>2010-07-15T17:03:31Z</time>
      </trkpt>
      <trkpt lat="48.72551" lon="7.33484">
        <ele>323.982666</ele>
        <time>2010-07-15T17:03:35Z</time>
      </trkpt>
      <trkpt lat="48.72538" lon="7.33473">
        <ele>323.576416</ele>
        <time>2010-07-15T17:03:40Z</time>
      </trkpt>
      <trkpt lat="48.72526" lon="7.33462">
        <ele>325.396729</ele>
        <time>2010-07-15T17:03:45Z</time>
      </trkpt>
      <trkpt lat="48.72513" lon="7.33454">
        <ele>329.943604</ele>
        <time>2010-07-15T17:04:19Z</time>
      </trkpt>
      <trkpt lat="48.72502" lon="7.33441">
        <ele>331.177979</ele>
        <time>2010-07-15T17:04:32Z</time>
      </trkpt>
      <trkpt lat="48.7249" lon="7.3343">
        <ele>332.357666</ele>
        <time>2010-07-15T17:04:36Z</time>
      </trkpt>
      <trkpt lat="48.72478" lon="7.33419">
        <ele>333.052979</ele>
        <time>2010-07-15T17:04:40Z</time>
      </trkpt>
      <trkpt lat="48.72466" lon="7.33406">
        <ele>333.279541</ele>
        <time>2010-07-15T17:04:45Z</time>
      </trkpt>
      <trkpt lat="48.72453" lon="7.33395">
        <ele>333.271729</ele>
        <time>2010-07-15T17:04:49Z</time>
      </trkpt>
      <trkpt lat="48.72442" lon="7.33382">
        <ele>334.154541</ele>
        <time>2010-07-15T17:04:54Z</time>
      </trkpt>
      <trkpt lat="48.72431" lon="7.33369">
        <ele>334.240479</ele>
        <time>2010-07-15T17:04:58Z</time>
      </trkpt>
      <trkpt lat="48.72419" lon="7.33358">
        <ele>334.482666</ele>
        <time>2010-07-15T17:05:01Z</time>
      </trkpt>
      <trkpt lat="48.72406" lon="7.33347">
        <ele>334.709229</ele>
        <time>2010-07-15T17:05:05Z</time>
      </trkpt>
      <trkpt lat="48.72392" lon="7.33338">
        <ele>334.607666</ele>
        <time>2010-07-15T17:05:09Z</time>
      </trkpt>
      <trkpt lat="48.72377" lon="7.33325">
        <ele>335.467041</ele>
        <time>2010-07-15T17:05:13Z</time>
      </trkpt>
      <trkpt lat="48.72364" lon="7.33311">
        <ele>336.607666</ele>
        <time>2010-07-15T17:05:17Z</time>
      </trkpt>
      <trkpt lat="48.7235" lon="7.33299">
        <ele>338.552979</ele>
        <time>2010-07-15T17:05:21Z</time>
      </trkpt>
      <trkpt lat="48.72335" lon="7.33283">
        <ele>339.107666</ele>
        <time>2010-07-15T17:05:54Z</time>
      </trkpt>
      <trkpt lat="48.72321" lon="7.33276">
        <ele>339.888916</ele>
        <time>2010-07-15T17:09:05Z</time>
      </trkpt>
      <trkpt lat="48.72308" lon="7.33268">
        <ele>340.795166</ele>
        <time>2010-07-15T17:09:13Z</time>
      </trkpt>
      <trkpt lat="48.72295" lon="7.33261">
        <ele>342.654541</ele>
        <time>2010-07-15T17:09:21Z</time>
      </trkpt>
      <trkpt lat="48.72281" lon="7.33257">
        <ele>343.576416</ele>
        <time>2010-07-15T17:09:26Z</time>
      </trkpt>
      <trkpt lat="48.72265" lon="7.3325">
        <ele>344.826416</ele>
        <time>2010-07-15T17:09:32Z</time>
      </trkpt>
      <trkpt lat="48.7225" lon="7.33243">
        <ele>346.451416</ele>
        <time>2010-07-15T17:09:37Z</time>
      </trkpt>
      <trkpt lat="48.72233" lon="7.33238">
        <ele>347.631104</ele>
        <time>2010-07-15T17:09:41Z</time>
      </trkpt>
      <trkpt lat="48.72219" lon="7.33237">
        <ele>346.490479</ele>
        <time>2010-07-15T17:09:46Z</time>
      </trkpt>
      <trkpt lat="48.72206" lon="7.3323">
        <ele>347.927979</ele>
        <time>2010-07-15T17:09:50Z</time>
      </trkpt>
      <trkpt lat="48.72193" lon="7.33217">
        <ele>348.357666</ele>
        <time>2010-07-15T17:09:54Z</time>
      </trkpt>
      <trkpt lat="48.72179" lon="7.33201">
        <ele>348.021729</ele>
        <time>2010-07-15T17:09:59Z</time>
      </trkpt>
      <trkpt lat="48.7217" lon="7.3318">
        <ele>347.748291</ele>
        <time>2010-07-15T17:10:03Z</time>
      </trkpt>
      <trkpt lat="48.72158" lon="7.33165">
        <ele>345.670166</ele>
        <time>2010-07-15T17:10:06Z</time>
      </trkpt>
      <trkpt lat="48.72151" lon="7.33147">
        <ele>346.935791</ele>
        <time>2010-07-15T17:10:10Z</time>
      </trkpt>
      <trkpt lat="48.72147" lon="7.33127">
        <ele>347.443604</ele>
        <time>2010-07-15T17:10:14Z</time>
      </trkpt>
      <trkpt lat="48.72144" lon="7.33107">
        <ele>347.045166</ele>
        <time>2010-07-15T17:10:18Z</time>
      </trkpt>
      <trkpt lat="48.72141" lon="7.33083">
        <ele>347.724854</ele>
        <time>2010-07-15T17:10:23Z</time>
      </trkpt>
      <trkpt lat="48.7214" lon="7.33062">
        <ele>348.787354</ele>
        <time>2010-07-15T17:10:27Z</time>
      </trkpt>
      <trkpt lat="48.72141" lon="7.3304">
        <ele>348.592041</ele>
        <time>2010-07-15T17:10:31Z</time>
      </trkpt>
      <trkpt lat="48.72141" lon="7.33018">
        <ele>349.467041</ele>
        <time>2010-07-15T17:10:35Z</time>
      </trkpt>
      <trkpt lat="48.72141" lon="7.32997">
        <ele>351.029541</ele>
        <time>2010-07-15T17:10:39Z</time>
      </trkpt>
      <trkpt lat="48.72141" lon="7.32975">
        <ele>351.052979</ele>
        <time>2010-07-15T17:10:43Z</time>
      </trkpt>
      <trkpt lat="48.7214" lon="7.32951">
        <ele>348.467041</ele>
        <time>2010-07-15T17:10:48Z</time>
      </trkpt>
      <trkpt lat="48.7214" lon="7.32929">
        <ele>348.943604</ele>
        <time>2010-07-15T17:10:52Z</time>
      </trkpt>
      <trkpt lat="48.72141" lon="7.32905">
        <ele>349.748291</ele>
        <time>2010-07-15T17:10:56Z</time>
      </trkpt>
      <trkpt lat="48.7214" lon="7.32882">
        <ele>349.131104</ele>
        <time>2010-07-15T17:11:00Z</time>
      </trkpt>
      <trkpt lat="48.72137" lon="7.32858">
        <ele>349.482666</ele>
        <time>2010-07-15T17:11:04Z</time>
      </trkpt>
      <trkpt lat="48.72134" lon="7.32836">
        <ele>350.029541</ele>
        <time>2010-07-15T17:11:08Z</time>
      </trkpt>
      <trkpt lat="48.72127" lon="7.32815">
        <ele>349.818604</ele>
        <time>2010-07-15T17:11:12Z</time>
      </trkpt>
      <trkpt lat="48.7212" lon="7.32794">
        <ele>350.451416</ele>
        <time>2010-07-15T17:11:16Z</time>
      </trkpt>
      <trkpt lat="48.72111" lon="7.32774">
        <ele>351.154541</ele>
        <time>2010-07-15T17:11:20Z</time>
      </trkpt>
      <trkpt lat="48.72101" lon="7.32755">
        <ele>353.052979</ele>
        <time>2010-07-15T17:11:24Z</time>
      </trkpt>
      <trkpt lat="48.72088" lon="7.32744">
        <ele>354.920166</ele>
        <time>2010-07-15T17:11:28Z</time>
      </trkpt>
      <trkpt lat="48.72076" lon="7.32735">
        <ele>357.662354</ele>
        <time>2010-07-15T17:11:32Z</time>
      </trkpt>
      <trkpt lat="48.72062" lon="7.32724">
        <ele>359.763916</ele>
        <time>2010-07-15T17:11:37Z</time>
      </trkpt>
      <trkpt lat="48.72048" lon="7.32715">
        <ele>362.310791</ele>
        <time>2010-07-15T17:11:42Z</time>
      </trkpt>
      <trkpt lat="48.72035" lon="7.32709">
        <ele>362.123291</ele>
        <time>2010-07-15T17:11:46Z</time>
      </trkpt>
      <trkpt lat="48.72017" lon="7.32711">
        <ele>355.881104</ele>
        <time>2010-07-15T17:11:49Z</time>
      </trkpt>
      <trkpt lat="48.72001" lon="7.32711">
        <ele>353.318604</ele>
        <time>2010-07-15T17:11:53Z</time>
      </trkpt>
      <trkpt lat="48.71984" lon="7.32711">
        <ele>352.092041</ele>
        <time>2010-07-15T17:11:57Z</time>
      </trkpt>
      <trkpt lat="48.7197" lon="7.3271">
        <ele>352.029541</ele>
        <time>2010-07-15T17:12:01Z</time>
      </trkpt>
      <trkpt lat="48.71956" lon="7.32708">
        <ele>355.084229</ele>
        <time>2010-07-15T17:12:06Z</time>
      </trkpt>
      <trkpt lat="48.7194" lon="7.32713">
        <ele>356.810791</ele>
        <time>2010-07-15T17:12:11Z</time>
      </trkpt>
      <trkpt lat="48.71924" lon="7.32718">
        <ele>358.607666</ele>
        <time>2010-07-15T17:12:16Z</time>
      </trkpt>
      <trkpt lat="48.71912" lon="7.32727">
        <ele>361.295166</ele>
        <time>2010-07-15T17:12:21Z</time>
      </trkpt>
      <trkpt lat="48.71898" lon="7.32737">
        <ele>363.990479</ele>
        <time>2010-07-15T17:12:26Z</time>
      </trkpt>
      <trkpt lat="48.71883" lon="7.32745">
        <ele>359.771729</ele>
        <time>2010-07-15T17:12:29Z</time>
      </trkpt>
      <trkpt lat="48.71872" lon="7.32756">
        <ele>362.123291</ele>
        <time>2010-07-15T17:12:33Z</time>
      </trkpt>
      <trkpt lat="48.71858" lon="7.32768">
        <ele>362.349854</ele>
        <time>2010-07-15T17:12:38Z</time>
      </trkpt>
      <trkpt lat="48.71846" lon="7.32781">
        <ele>366.724854</ele>
        <time>2010-07-15T17:12:44Z</time>
      </trkpt>
      <trkpt lat="48.71832" lon="7.32791">
        <ele>369.326416</ele>
        <time>2010-07-15T17:12:50Z</time>
      </trkpt>
      <trkpt lat="48.71814" lon="7.32796">
        <ele>366.498291</ele>
        <time>2010-07-15T17:12:53Z</time>
      </trkpt>
      <trkpt lat="48.71798" lon="7.32799">
        <ele>365.045166</ele>
        <time>2010-07-15T17:12:56Z</time>
      </trkpt>
      <trkpt lat="48.71784" lon="7.32799">
        <ele>366.146729</ele>
        <time>2010-07-15T17:13:01Z</time>
      </trkpt>
      <trkpt lat="48.7177" lon="7.32802">
        <ele>364.982666</ele>
        <time>2010-07-15T17:13:05Z</time>
      </trkpt>
      <trkpt lat="48.71754" lon="7.32808">
        <ele>361.677979</ele>
        <time>2010-07-15T17:13:10Z</time>
      </trkpt>
      <trkpt lat="48.71739" lon="7.32805">
        <ele>359.623291</ele>
        <time>2010-07-15T17:13:14Z</time>
      </trkpt>
      <trkpt lat="48.71723" lon="7.328">
        <ele>360.701416</ele>
        <time>2010-07-15T17:13:19Z</time>
      </trkpt>
      <trkpt lat="48.71708" lon="7.32808">
        <ele>362.201416</ele>
        <time>2010-07-15T17:13:25Z</time>
      </trkpt>
      <trkpt lat="48.71695" lon="7.3282">
        <ele>361.623291</ele>
        <time>2010-07-15T17:13:29Z</time>
      </trkpt>
      <trkpt lat="48.71676" lon="7.32832">
        <ele>359.365479</ele>
        <time>2010-07-15T17:13:33Z</time>
      </trkpt>
      <trkpt lat="48.71667" lon="7.32849">
        <ele>356.677979</ele>
        <time>2010-07-15T17:13:36Z</time>
      </trkpt>
      <trkpt lat="48.71657" lon="7.32867">
        <ele>354.857666</ele>
        <time>2010-07-15T17:13:40Z</time>
      </trkpt>
      <trkpt lat="48.71647" lon="7.32884">
        <ele>353.763916</ele>
        <time>2010-07-15T17:13:44Z</time>
      </trkpt>
      <trkpt lat="48.71637" lon="7.329">
        <ele>355.037354</ele>
        <time>2010-07-15T17:13:51Z</time>
      </trkpt>
      <trkpt lat="48.71624" lon="7.32895">
        <ele>357.388916</ele>
        <time>2010-07-15T17:13:56Z</time>
      </trkpt>
      <trkpt lat="48.7161" lon="7.32892">
        <ele>359.631104</ele>
        <time>2010-07-15T17:14:01Z</time>
      </trkpt>
      <trkpt lat="48.71594" lon="7.32889">
        <ele>360.209229</ele>
        <time>2010-07-15T17:14:05Z</time>
      </trkpt>
      <trkpt lat="48.71578" lon="7.32886">
        <ele>361.959229</ele>
        <time>2010-07-15T17:14:11Z</time>
      </trkpt>
      <trkpt lat="48.71562" lon="7.32883">
        <ele>363.224854</ele>
        <time>2010-07-15T17:14:15Z</time>
      </trkpt>
      <trkpt lat="48.71547" lon="7.32882">
        <ele>360.474854</ele>
        <time>2010-07-15T17:14:17Z</time>
      </trkpt>
      <trkpt lat="48.71531" lon="7.32878">
        <ele>359.037354</ele>
        <time>2010-07-15T17:14:20Z</time>
      </trkpt>
      <trkpt lat="48.71518" lon="7.32873">
        <ele>359.318604</ele>
        <time>2010-07-15T17:14:24Z</time>
      </trkpt>
      <trkpt lat="48.715" lon="7.32871">
        <ele>358.927979</ele>
        <time>2010-07-15T17:14:29Z</time>
      </trkpt>
      <trkpt lat="48.71485" lon="7.32866">
        <ele>359.865479</ele>
        <time>2010-07-15T17:14:33Z</time>
      </trkpt>
      <trkpt lat="48.71471" lon="7.32873">
        <ele>357.967041</ele>
        <time>2010-07-15T17:14:37Z</time>
      </trkpt>
      <trkpt lat="48.71458" lon="7.32876">
        <ele>356.302979</ele>
        <time>2010-07-15T17:14:41Z</time>
      </trkpt>
      <trkpt lat="48.71444" lon="7.32877">
        <ele>356.404541</ele>
        <time>2010-07-15T17:14:45Z</time>
      </trkpt>
      <trkpt lat="48.71429" lon="7.3288">
        <ele>356.045166</ele>
        <time>2010-07-15T17:14:50Z</time>
      </trkpt>
      <trkpt lat="48.71416" lon="7.32885">
        <ele>354.740479</ele>
        <time>2010-07-15T17:14:55Z</time>
      </trkpt>
      <trkpt lat="48.71401" lon="7.32887">
        <ele>354.763916</ele>
        <time>2010-07-15T17:14:59Z</time>
      </trkpt>
      <trkpt lat="48.71386" lon="7.3289">
        <ele>356.279541</ele>
        <time>2010-07-15T17:15:03Z</time>
      </trkpt>
      <trkpt lat="48.7137" lon="7.3289">
        <ele>357.427979</ele>
        <time>2010-07-15T17:15:07Z</time>
      </trkpt>
      <trkpt lat="48.71356" lon="7.32891">
        <ele>356.498291</ele>
        <time>2010-07-15T17:15:11Z</time>
      </trkpt>
      <trkpt lat="48.71342" lon="7.32895">
        <ele>356.006104</ele>
        <time>2010-07-15T17:15:15Z</time>
      </trkpt>
      <trkpt lat="48.71326" lon="7.32898">
        <ele>356.123291</ele>
        <time>2010-07-15T17:15:20Z</time>
      </trkpt>
      <trkpt lat="48.7131" lon="7.329">
        <ele>355.435791</ele>
        <time>2010-07-15T17:15:25Z</time>
      </trkpt>
      <trkpt lat="48.71294" lon="7.32898">
        <ele>357.599854</ele>
        <time>2010-07-15T17:15:30Z</time>
      </trkpt>
      <trkpt lat="48.7128" lon="7.32899">
        <ele>361.193604</ele>
        <time>2010-07-15T17:15:34Z</time>
      </trkpt>
      <trkpt lat="48.71265" lon="7.32892">
        <ele>363.576416</ele>
        <time>2010-07-15T17:15:39Z</time>
      </trkpt>
      <trkpt lat="48.71252" lon="7.32884">
        <ele>365.404541</ele>
        <time>2010-07-15T17:15:44Z</time>
      </trkpt>
      <trkpt lat="48.71239" lon="7.32869">
        <ele>366.881104</ele>
        <time>2010-07-15T17:15:48Z</time>
      </trkpt>
      <trkpt lat="48.71228" lon="7.32851">
        <ele>370.256104</ele>
        <time>2010-07-15T17:15:51Z</time>
      </trkpt>
      <trkpt lat="48.71219" lon="7.32835">
        <ele>370.381104</ele>
        <time>2010-07-15T17:15:55Z</time>
      </trkpt>
      <trkpt lat="48.71208" lon="7.32816">
        <ele>372.865479</ele>
        <time>2010-07-15T17:15:59Z</time>
      </trkpt>
      <trkpt lat="48.71198" lon="7.32801">
        <ele>375.388916</ele>
        <time>2010-07-15T17:16:02Z</time>
      </trkpt>
      <trkpt lat="48.71186" lon="7.32786">
        <ele>376.302979</ele>
        <time>2010-07-15T17:16:06Z</time>
      </trkpt>
      <trkpt lat="48.71174" lon="7.3277">
        <ele>378.037354</ele>
        <time>2010-07-15T17:16:11Z</time>
      </trkpt>
      <trkpt lat="48.71161" lon="7.32753">
        <ele>380.951416</ele>
        <time>2010-07-15T17:16:16Z</time>
      </trkpt>
      <trkpt lat="48.71149" lon="7.32743">
        <ele>380.771729</ele>
        <time>2010-07-15T17:16:21Z</time>
      </trkpt>
      <trkpt lat="48.71136" lon="7.32731">
        <ele>382.842041</ele>
        <time>2010-07-15T17:16:27Z</time>
      </trkpt>
      <trkpt lat="48.71122" lon="7.32722">
        <ele>384.904541</ele>
        <time>2010-07-15T17:16:34Z</time>
      </trkpt>
      <trkpt lat="48.71112" lon="7.32703">
        <ele>387.287354</ele>
        <time>2010-07-15T17:16:38Z</time>
      </trkpt>
      <trkpt lat="48.71104" lon="7.32682">
        <ele>388.513916</ele>
        <time>2010-07-15T17:16:42Z</time>
      </trkpt>
      <trkpt lat="48.71115" lon="7.32664">
        <ele>392.552979</ele>
        <time>2010-07-15T17:16:48Z</time>
      </trkpt>
      <trkpt lat="48.71128" lon="7.32646">
        <ele>395.802979</ele>
        <time>2010-07-15T17:16:52Z</time>
      </trkpt>
      <trkpt lat="48.71138" lon="7.32631">
        <ele>398.490479</ele>
        <time>2010-07-15T17:16:55Z</time>
      </trkpt>
      <trkpt lat="48.71149" lon="7.32614">
        <ele>399.131104</ele>
        <time>2010-07-15T17:16:58Z</time>
      </trkpt>
      <trkpt lat="48.71167" lon="7.32602">
        <ele>403.209229</ele>
        <time>2010-07-15T17:17:02Z</time>
      </trkpt>
      <trkpt lat="48.71184" lon="7.32595">
        <ele>407.295166</ele>
        <time>2010-07-15T17:17:05Z</time>
      </trkpt>
      <trkpt lat="48.71194" lon="7.32578">
        <ele>400.818604</ele>
        <time>2010-07-15T17:17:08Z</time>
      </trkpt>
      <trkpt lat="48.71203" lon="7.32559">
        <ele>394.654541</ele>
        <time>2010-07-15T17:17:11Z</time>
      </trkpt>
      <trkpt lat="48.71213" lon="7.32544">
        <ele>393.123291</ele>
        <time>2010-07-15T17:17:14Z</time>
      </trkpt>
      <trkpt lat="48.71226" lon="7.3253">
        <ele>396.459229</ele>
        <time>2010-07-15T17:17:18Z</time>
      </trkpt>
      <trkpt lat="48.7123" lon="7.32509">
        <ele>396.990479</ele>
        <time>2010-07-15T17:17:24Z</time>
      </trkpt>
      <trkpt lat="48.71215" lon="7.32509">
        <ele>392.701416</ele>
        <time>2010-07-15T17:17:35Z</time>
      </trkpt>
      <trkpt lat="48.71201" lon="7.32526">
        <ele>391.802979</ele>
        <time>2010-07-15T17:17:40Z</time>
      </trkpt>
      <trkpt lat="48.7119" lon="7.32541">
        <ele>390.881104</ele>
        <time>2010-07-15T17:17:45Z</time>
      </trkpt>
      <trkpt lat="48.71178" lon="7.32551">
        <ele>389.662354</ele>
        <time>2010-07-15T17:17:49Z</time>
      </trkpt>
      <trkpt lat="48.71166" lon="7.32562">
        <ele>394.154541</ele>
        <time>2010-07-15T17:17:57Z</time>
      </trkpt>
      <trkpt lat="48.71151" lon="7.32566">
        <ele>399.357666</ele>
        <time>2010-07-15T17:18:04Z</time>
      </trkpt>
      <trkpt lat="48.71137" lon="7.32575">
        <ele>405.474854</ele>
        <time>2010-07-15T17:18:18Z</time>
      </trkpt>
      <trkpt lat="48.71125" lon="7.32585">
        <ele>408.123291</ele>
        <time>2010-07-15T17:18:24Z</time>
      </trkpt>
      <trkpt lat="48.71123" lon="7.32605">
        <ele>408.701416</ele>
        <time>2010-07-15T17:18:30Z</time>
      </trkpt>
      <trkpt lat="48.71112" lon="7.3262">
        <ele>407.513916</ele>
        <time>2010-07-15T17:18:34Z</time>
      </trkpt>
      <trkpt lat="48.71102" lon="7.32633">
        <ele>408.115479</ele>
        <time>2010-07-15T17:18:38Z</time>
      </trkpt>
      <trkpt lat="48.71094" lon="7.32652">
        <ele>409.576416</ele>
        <time>2010-07-15T17:18:42Z</time>
      </trkpt>
      <trkpt lat="48.71093" lon="7.32675">
        <ele>410.584229</ele>
        <time>2010-07-15T17:18:47Z</time>
      </trkpt>
      <trkpt lat="48.71093" lon="7.32696">
        <ele>415.232666</ele>
        <time>2010-07-15T17:18:53Z</time>
      </trkpt>
      <trkpt lat="48.711" lon="7.32714">
        <ele>418.240479</ele>
        <time>2010-07-15T17:18:59Z</time>
      </trkpt>
      <trkpt lat="48.71109" lon="7.32733">
        <ele>419.482666</ele>
        <time>2010-07-15T17:19:04Z</time>
      </trkpt>
      <trkpt lat="48.71118" lon="7.3275">
        <ele>420.201416</ele>
        <time>2010-07-15T17:19:12Z</time>
      </trkpt>
      <trkpt lat="48.71127" lon="7.32771">
        <ele>417.724854</ele>
        <time>2010-07-15T17:19:18Z</time>
      </trkpt>
      <trkpt lat="48.71139" lon="7.32783">
        <ele>418.084229</ele>
        <time>2010-07-15T17:19:23Z</time>
      </trkpt>
      <trkpt lat="48.71151" lon="7.32797">
        <ele>417.490479</ele>
        <time>2010-07-15T17:19:28Z</time>
      </trkpt>
      <trkpt lat="48.71159" lon="7.32814">
        <ele>417.357666</ele>
        <time>2010-07-15T17:19:36Z</time>
      </trkpt>
      <trkpt lat="48.71167" lon="7.32832">
        <ele>420.107666</ele>
        <time>2010-07-15T17:19:45Z</time>
      </trkpt>
      <trkpt lat="48.71164" lon="7.32853">
        <ele>420.185791</ele>
        <time>2010-07-15T17:19:56Z</time>
      </trkpt>
      <trkpt lat="48.71172" lon="7.3287">
        <ele>421.381104</ele>
        <time>2010-07-15T17:20:04Z</time>
      </trkpt>
      <trkpt lat="48.71177" lon="7.32889">
        <ele>425.568604</ele>
        <time>2010-07-15T17:20:12Z</time>
      </trkpt>
      <trkpt lat="48.71187" lon="7.32902">
        <ele>427.638916</ele>
        <time>2010-07-15T17:20:19Z</time>
      </trkpt>
      <trkpt lat="48.71193" lon="7.32921">
        <ele>430.427979</ele>
        <time>2010-07-15T17:20:27Z</time>
      </trkpt>
      <trkpt lat="48.71195" lon="7.32943">
        <ele>431.185791</ele>
        <time>2010-07-15T17:20:35Z</time>
      </trkpt>
      <trkpt lat="48.71204" lon="7.32961">
        <ele>436.545166</ele>
        <time>2010-07-15T17:20:49Z</time>
      </trkpt>
      <trkpt lat="48.71217" lon="7.32971">
        <ele>438.357666</ele>
        <time>2010-07-15T17:20:56Z</time>
      </trkpt>
      <trkpt lat="48.7123" lon="7.32978">
        <ele>438.763916</ele>
        <time>2010-07-15T17:21:04Z</time>
      </trkpt>
      <trkpt lat="48.71244" lon="7.32986">
        <ele>437.849854</ele>
        <time>2010-07-15T17:21:11Z</time>
      </trkpt>
      <trkpt lat="48.71257" lon="7.32993">
        <ele>440.927979</ele>
        <time>2010-07-15T17:21:20Z</time>
      </trkpt>
      <trkpt lat="48.7127" lon="7.33003">
        <ele>439.826416</ele>
        <time>2010-07-15T17:21:27Z</time>
      </trkpt>
      <trkpt lat="48.71284" lon="7.33009">
        <ele>436.560791</ele>
        <time>2010-07-15T17:21:32Z</time>
      </trkpt>
      <trkpt lat="48.71297" lon="7.33019">
        <ele>439.271729</ele>
        <time>2010-07-15T17:21:39Z</time>
      </trkpt>
      <trkpt lat="48.71312" lon="7.33019">
        <ele>440.967041</ele>
        <time>2010-07-15T17:21:45Z</time>
      </trkpt>
      <trkpt lat="48.71326" lon="7.33025">
        <ele>442.982666</ele>
        <time>2010-07-15T17:21:52Z</time>
      </trkpt>
      <trkpt lat="48.71339" lon="7.33025">
        <ele>446.342041</ele>
        <time>2010-07-15T17:21:58Z</time>
      </trkpt>
      <trkpt lat="48.71352" lon="7.33031">
        <ele>446.560791</ele>
        <time>2010-07-15T17:22:04Z</time>
      </trkpt>
      <trkpt lat="48.71366" lon="7.33038">
        <ele>448.896729</ele>
        <time>2010-07-15T17:22:11Z</time>
      </trkpt>
      <trkpt lat="48.7138" lon="7.33039">
        <ele>451.310791</ele>
        <time>2010-07-15T17:22:19Z</time>
      </trkpt>
      <trkpt lat="48.71396" lon="7.33037">
        <ele>446.826416</ele>
        <time>2010-07-15T17:22:26Z</time>
      </trkpt>
      <trkpt lat="48.7141" lon="7.33039">
        <ele>447.381104</ele>
        <time>2010-07-15T17:22:32Z</time>
      </trkpt>
      <trkpt lat="48.71425" lon="7.3304">
        <ele>446.662354</ele>
        <time>2010-07-15T17:22:38Z</time>
      </trkpt>
      <trkpt lat="48.71438" lon="7.3304">
        <ele>450.162354</ele>
        <time>2010-07-15T17:22:45Z</time>
      </trkpt>
      <trkpt lat="48.71452" lon="7.33038">
        <ele>447.818604</ele>
        <time>2010-07-15T17:22:52Z</time>
      </trkpt>
      <trkpt lat="48.71465" lon="7.33032">
        <ele>445.427979</ele>
        <time>2010-07-15T17:22:59Z</time>
      </trkpt>
      <trkpt lat="48.71479" lon="7.33036">
        <ele>445.646729</ele>
        <time>2010-07-15T17:23:05Z</time>
      </trkpt>
      <trkpt lat="48.71492" lon="7.33042">
        <ele>445.232666</ele>
        <time>2010-07-15T17:23:11Z</time>
      </trkpt>
      <trkpt lat="48.71506" lon="7.33047">
        <ele>448.013916</ele>
        <time>2010-07-15T17:23:17Z</time>
      </trkpt>
      <trkpt lat="48.71519" lon="7.33052">
        <ele>450.138916</ele>
        <time>2010-07-15T17:23:22Z</time>
      </trkpt>
      <trkpt lat="48.71531" lon="7.33057">
        <ele>440.670166</ele>
        <time>2010-07-15T17:23:31Z</time>
      </trkpt>
      <trkpt lat="48.71521" lon="7.33057">
        <ele>429.021729</ele>
        <time>2010-07-15T17:23:43Z</time>
      </trkpt>
      <trkpt lat="48.71507" lon="7.33056">
        <ele>426.037354</ele>
        <time>2010-07-15T17:23:49Z</time>
      </trkpt>
      <trkpt lat="48.71492" lon="7.33057">
        <ele>423.131104</ele>
        <time>2010-07-15T17:23:54Z</time>
      </trkpt>
      <trkpt lat="48.71476" lon="7.33061">
        <ele>421.584229</ele>
        <time>2010-07-15T17:23:59Z</time>
      </trkpt>
      <trkpt lat="48.71458" lon="7.33064">
        <ele>419.849854</ele>
        <time>2010-07-15T17:24:04Z</time>
      </trkpt>
      <trkpt lat="48.71442" lon="7.3307">
        <ele>420.623291</ele>
        <time>2010-07-15T17:24:08Z</time>
      </trkpt>
      <trkpt lat="48.71426" lon="7.33072">
        <ele>420.224854</ele>
        <time>2010-07-15T17:24:12Z</time>
      </trkpt>
      <trkpt lat="48.71409" lon="7.33077">
        <ele>419.396729</ele>
        <time>2010-07-15T17:24:16Z</time>
      </trkpt>
      <trkpt lat="48.71392" lon="7.33084">
        <ele>420.568604</ele>
        <time>2010-07-15T17:24:20Z</time>
      </trkpt>
      <trkpt lat="48.71379" lon="7.33089">
        <ele>420.724854</ele>
        <time>2010-07-15T17:24:23Z</time>
      </trkpt>
      <trkpt lat="48.71364" lon="7.33094">
        <ele>420.709229</ele>
        <time>2010-07-15T17:24:26Z</time>
      </trkpt>
      <trkpt lat="48.71347" lon="7.33102">
        <ele>420.638916</ele>
        <time>2010-07-15T17:24:30Z</time>
      </trkpt>
      <trkpt lat="48.71329" lon="7.3311">
        <ele>421.763916</ele>
        <time>2010-07-15T17:24:34Z</time>
      </trkpt>
      <trkpt lat="48.71312" lon="7.33112">
        <ele>422.037354</ele>
        <time>2010-07-15T17:24:37Z</time>
      </trkpt>
      <trkpt lat="48.71298" lon="7.33111">
        <ele>423.201416</ele>
        <time>2010-07-15T17:24:40Z</time>
      </trkpt>
      <trkpt lat="48.7128" lon="7.33108">
        <ele>423.412354</ele>
        <time>2010-07-15T17:24:43Z</time>
      </trkpt>
      <trkpt lat="48.71264" lon="7.33108">
        <ele>421.545166</ele>
        <time>2010-07-15T17:24:46Z</time>
      </trkpt>
      <trkpt lat="48.71248" lon="7.3311">
        <ele>421.076416</ele>
        <time>2010-07-15T17:24:49Z</time>
      </trkpt>
      <trkpt lat="48.71234" lon="7.33115">
        <ele>422.060791</ele>
        <time>2010-07-15T17:24:52Z</time>
      </trkpt>
      <trkpt lat="48.71222" lon="7.33124">
        <ele>423.732666</ele>
        <time>2010-07-15T17:24:55Z</time>
      </trkpt>
      <trkpt lat="48.71205" lon="7.33135">
        <ele>424.365479</ele>
        <time>2010-07-15T17:24:59Z</time>
      </trkpt>
      <trkpt lat="48.71192" lon="7.33148">
        <ele>424.068604</ele>
        <time>2010-07-15T17:25:04Z</time>
      </trkpt>
      <trkpt lat="48.71205" lon="7.33156">
        <ele>428.506104</ele>
        <time>2010-07-15T17:25:14Z</time>
      </trkpt>
      <trkpt lat="48.71217" lon="7.33155">
        <ele>434.185791</ele>
        <time>2010-07-15T17:25:21Z</time>
      </trkpt>
      <trkpt lat="48.7123" lon="7.33146">
        <ele>434.584229</ele>
        <time>2010-07-15T17:25:27Z</time>
      </trkpt>
      <trkpt lat="48.71245" lon="7.33135">
        <ele>436.576416</ele>
        <time>2010-07-15T17:25:39Z</time>
      </trkpt>
      <trkpt lat="48.71259" lon="7.33137">
        <ele>437.021729</ele>
        <time>2010-07-15T17:25:44Z</time>
      </trkpt>
      <trkpt lat="48.71273" lon="7.33147">
        <ele>437.927979</ele>
        <time>2010-07-15T17:25:49Z</time>
      </trkpt>
      <trkpt lat="48.71288" lon="7.33151">
        <ele>445.185791</ele>
        <time>2010-07-15T17:25:57Z</time>
      </trkpt>
      <trkpt lat="48.71303" lon="7.33152">
        <ele>448.638916</ele>
        <time>2010-07-15T17:26:02Z</time>
      </trkpt>
      <trkpt lat="48.71317" lon="7.33147">
        <ele>450.826416</ele>
        <time>2010-07-15T17:26:06Z</time>
      </trkpt>
      <trkpt lat="48.7133" lon="7.33141">
        <ele>449.693604</ele>
        <time>2010-07-15T17:26:10Z</time>
      </trkpt>
      <trkpt lat="48.71347" lon="7.33134">
        <ele>452.982666</ele>
        <time>2010-07-15T17:26:15Z</time>
      </trkpt>
      <trkpt lat="48.71359" lon="7.33131">
        <ele>458.818604</ele>
        <time>2010-07-15T17:26:21Z</time>
      </trkpt>
      <trkpt lat="48.71375" lon="7.33129">
        <ele>463.115479</ele>
        <time>2010-07-15T17:26:27Z</time>
      </trkpt>
      <trkpt lat="48.71388" lon="7.33125">
        <ele>470.209229</ele>
        <time>2010-07-15T17:26:34Z</time>
      </trkpt>
      <trkpt lat="48.71404" lon="7.33125">
        <ele>469.373291</ele>
        <time>2010-07-15T17:26:40Z</time>
      </trkpt>
      <trkpt lat="48.71418" lon="7.33124">
        <ele>468.967041</ele>
        <time>2010-07-15T17:26:47Z</time>
      </trkpt>
      <trkpt lat="48.71434" lon="7.33123">
        <ele>468.982666</ele>
        <time>2010-07-15T17:26:54Z</time>
      </trkpt>
      <trkpt lat="48.71447" lon="7.33122">
        <ele>471.740479</ele>
        <time>2010-07-15T17:26:59Z</time>
      </trkpt>
      <trkpt lat="48.71461" lon="7.33119">
        <ele>474.427979</ele>
        <time>2010-07-15T17:27:03Z</time>
      </trkpt>
      <trkpt lat="48.71475" lon="7.33119">
        <ele>475.631104</ele>
        <time>2010-07-15T17:27:06Z</time>
      </trkpt>
      <trkpt lat="48.7149" lon="7.33118">
        <ele>473.443604</ele>
        <time>2010-07-15T17:27:10Z</time>
      </trkpt>
      <trkpt lat="48.71504" lon="7.33122">
        <ele>471.724854</ele>
        <time>2010-07-15T17:27:14Z</time>
      </trkpt>
      <trkpt lat="48.71518" lon="7.33129">
        <ele>468.388916</ele>
        <time>2010-07-15T17:27:18Z</time>
      </trkpt>
      <trkpt lat="48.71536" lon="7.33131">
        <ele>465.263916</ele>
        <time>2010-07-15T17:27:22Z</time>
      </trkpt>
      <trkpt lat="48.71555" lon="7.33135">
        <ele>464.435791</ele>
        <time>2010-07-15T17:27:26Z</time>
      </trkpt>
      <trkpt lat="48.71572" lon="7.33139">
        <ele>461.060791</ele>
        <time>2010-07-15T17:27:29Z</time>
      </trkpt>
      <trkpt lat="48.71585" lon="7.33145">
        <ele>456.404541</ele>
        <time>2010-07-15T17:27:31Z</time>
      </trkpt>
      <trkpt lat="48.71597" lon="7.33156">
        <ele>455.217041</ele>
        <time>2010-07-15T17:27:34Z</time>
      </trkpt>
      <trkpt lat="48.71609" lon="7.33171">
        <ele>456.021729</ele>
        <time>2010-07-15T17:27:37Z</time>
      </trkpt>
      <trkpt lat="48.7162" lon="7.33187">
        <ele>459.584229</ele>
        <time>2010-07-15T17:27:41Z</time>
      </trkpt>
      <trkpt lat="48.71628" lon="7.33205">
        <ele>460.427979</ele>
        <time>2010-07-15T17:27:44Z</time>
      </trkpt>
      <trkpt lat="48.71644" lon="7.33224">
        <ele>457.334229</ele>
        <time>2010-07-15T17:27:49Z</time>
      </trkpt>
      <trkpt lat="48.71658" lon="7.33234">
        <ele>458.568604</ele>
        <time>2010-07-15T17:27:52Z</time>
      </trkpt>
      <trkpt lat="48.71672" lon="7.33238">
        <ele>463.693604</ele>
        <time>2010-07-15T17:27:57Z</time>
      </trkpt>
      <trkpt lat="48.71686" lon="7.33242">
        <ele>463.826416</ele>
        <time>2010-07-15T17:28:01Z</time>
      </trkpt>
      <trkpt lat="48.717" lon="7.33251">
        <ele>463.888916</ele>
        <time>2010-07-15T17:28:05Z</time>
      </trkpt>
      <trkpt lat="48.71714" lon="7.33261">
        <ele>461.373291</ele>
        <time>2010-07-15T17:28:11Z</time>
      </trkpt>
      <trkpt lat="48.71725" lon="7.33278">
        <ele>463.084229</ele>
        <time>2010-07-15T17:28:18Z</time>
      </trkpt>
      <trkpt lat="48.71736" lon="7.33295">
        <ele>465.146729</ele>
        <time>2010-07-15T17:28:22Z</time>
      </trkpt>
      <trkpt lat="48.71745" lon="7.3331">
        <ele>467.763916</ele>
        <time>2010-07-15T17:28:26Z</time>
      </trkpt>
      <trkpt lat="48.71759" lon="7.33322">
        <ele>466.849854</ele>
        <time>2010-07-15T17:28:30Z</time>
      </trkpt>
      <trkpt lat="48.71771" lon="7.33336">
        <ele>468.388916</ele>
        <time>2010-07-15T17:28:35Z</time>
      </trkpt>
      <trkpt lat="48.71783" lon="7.33348">
        <ele>469.224854</ele>
        <time>2010-07-15T17:28:38Z</time>
      </trkpt>
      <trkpt lat="48.71796" lon="7.33358">
        <ele>468.599854</ele>
        <time>2010-07-15T17:28:41Z</time>
      </trkpt>
      <trkpt lat="48.71811" lon="7.3337">
        <ele>469.568604</ele>
        <time>2010-07-15T17:28:44Z</time>
      </trkpt>
      <trkpt lat="48.71824" lon="7.33382">
        <ele>468.896729</ele>
        <time>2010-07-15T17:28:47Z</time>
      </trkpt>
      <trkpt lat="48.71836" lon="7.33395">
        <ele>470.787354</ele>
        <time>2010-07-15T17:28:51Z</time>
      </trkpt>
      <trkpt lat="48.71847" lon="7.33407">
        <ele>470.646729</ele>
        <time>2010-07-15T17:28:54Z</time>
      </trkpt>
      <trkpt lat="48.71864" lon="7.33415">
        <ele>470.592041</ele>
        <time>2010-07-15T17:28:57Z</time>
      </trkpt>
      <trkpt lat="48.71878" lon="7.33421">
        <ele>467.615479</ele>
        <time>2010-07-15T17:29:00Z</time>
      </trkpt>
      <trkpt lat="48.71895" lon="7.33422">
        <ele>462.224854</ele>
        <time>2010-07-15T17:29:04Z</time>
      </trkpt>
      <trkpt lat="48.7191" lon="7.3343">
        <ele>462.443604</ele>
        <time>2010-07-15T17:29:09Z</time>
      </trkpt>
      <trkpt lat="48.71923" lon="7.33442">
        <ele>459.342041</ele>
        <time>2010-07-15T17:29:13Z</time>
      </trkpt>
      <trkpt lat="48.71938" lon="7.33435">
        <ele>460.474854</ele>
        <time>2010-07-15T17:29:15Z</time>
      </trkpt>
      <trkpt lat="48.71957" lon="7.33431">
        <ele>459.068604</ele>
        <time>2010-07-15T17:29:18Z</time>
      </trkpt>
      <trkpt lat="48.71969" lon="7.33423">
        <ele>457.740479</ele>
        <time>2010-07-15T17:29:21Z</time>
      </trkpt>
      <trkpt lat="48.71983" lon="7.33429">
        <ele>457.646729</ele>
        <time>2010-07-15T17:29:26Z</time>
      </trkpt>
      <trkpt lat="48.71996" lon="7.33442">
        <ele>460.920166</ele>
        <time>2010-07-15T17:29:32Z</time>
      </trkpt>
      <trkpt lat="48.72009" lon="7.3345">
        <ele>458.537354</ele>
        <time>2010-07-15T17:29:35Z</time>
      </trkpt>
      <trkpt lat="48.72018" lon="7.33468">
        <ele>456.310791</ele>
        <time>2010-07-15T17:29:39Z</time>
      </trkpt>
      <trkpt lat="48.72028" lon="7.33484">
        <ele>452.967041</ele>
        <time>2010-07-15T17:29:45Z</time>
      </trkpt>
      <trkpt lat="48.72039" lon="7.33497">
        <ele>451.857666</ele>
        <time>2010-07-15T17:29:49Z</time>
      </trkpt>
      <trkpt lat="48.72051" lon="7.33506">
        <ele>449.256104</ele>
        <time>2010-07-15T17:29:52Z</time>
      </trkpt>
      <trkpt lat="48.72065" lon="7.3351">
        <ele>447.459229</ele>
        <time>2010-07-15T17:29:57Z</time>
      </trkpt>
      <trkpt lat="48.72078" lon="7.3351">
        <ele>444.349854</ele>
        <time>2010-07-15T17:30:05Z</time>
      </trkpt>
      <trkpt lat="48.72092" lon="7.33519">
        <ele>444.498291</ele>
        <time>2010-07-15T17:30:21Z</time>
      </trkpt>
      <trkpt lat="48.72105" lon="7.33529">
        <ele>446.271729</ele>
        <time>2010-07-15T17:30:27Z</time>
      </trkpt>
      <trkpt lat="48.72117" lon="7.33544">
        <ele>448.310791</ele>
        <time>2010-07-15T17:30:31Z</time>
      </trkpt>
      <trkpt lat="48.72126" lon="7.33559">
        <ele>449.388916</ele>
        <time>2010-07-15T17:30:34Z</time>
      </trkpt>
      <trkpt lat="48.72141" lon="7.33571">
        <ele>444.185791</ele>
        <time>2010-07-15T17:30:37Z</time>
      </trkpt>
      <trkpt lat="48.72155" lon="7.33582">
        <ele>445.068604</ele>
        <time>2010-07-15T17:30:41Z</time>
      </trkpt>
      <trkpt lat="48.7217" lon="7.33594">
        <ele>445.888916</ele>
        <time>2010-07-15T17:30:45Z</time>
      </trkpt>
      <trkpt lat="48.72185" lon="7.33605">
        <ele>445.717041</ele>
        <time>2010-07-15T17:30:49Z</time>
      </trkpt>
      <trkpt lat="48.72199" lon="7.33613">
        <ele>447.506104</ele>
        <time>2010-07-15T17:30:53Z</time>
      </trkpt>
      <trkpt lat="48.72212" lon="7.33619">
        <ele>451.982666</ele>
        <time>2010-07-15T17:30:59Z</time>
      </trkpt>
      <trkpt lat="48.72226" lon="7.33623">
        <ele>452.810791</ele>
        <time>2010-07-15T17:31:06Z</time>
      </trkpt>
      <trkpt lat="48.7224" lon="7.33622">
        <ele>451.474854</ele>
        <time>2010-07-15T17:31:16Z</time>
      </trkpt>
      <trkpt lat="48.72252" lon="7.33627">
        <ele>444.302979</ele>
        <time>2010-07-15T17:32:07Z</time>
      </trkpt>
      <trkpt lat="48.72263" lon="7.33641">
        <ele>444.826416</ele>
        <time>2010-07-15T17:32:32Z</time>
      </trkpt>
      <trkpt lat="48.72277" lon="7.33647">
        <ele>444.623291</ele>
        <time>2010-07-15T17:32:40Z</time>
      </trkpt>
      <trkpt lat="48.7229" lon="7.33651">
        <ele>447.943604</ele>
        <time>2010-07-15T17:32:46Z</time>
      </trkpt>
      <trkpt lat="48.72304" lon="7.33665">
        <ele>449.037354</ele>
        <time>2010-07-15T17:32:53Z</time>
      </trkpt>
      <trkpt lat="48.72316" lon="7.33678">
        <ele>447.943604</ele>
        <time>2010-07-15T17:33:00Z</time>
      </trkpt>
      <trkpt lat="48.72329" lon="7.33693">
        <ele>451.357666</ele>
        <time>2010-07-15T17:33:04Z</time>
      </trkpt>
      <trkpt lat="48.72339" lon="7.3371">
        <ele>449.146729</ele>
        <time>2010-07-15T17:33:08Z</time>
      </trkpt>
      <trkpt lat="48.72347" lon="7.33729">
        <ele>453.302979</ele>
        <time>2010-07-15T17:33:13Z</time>
      </trkpt>
      <trkpt lat="48.72353" lon="7.33747">
        <ele>458.513916</ele>
        <time>2010-07-15T17:33:18Z</time>
      </trkpt>
      <trkpt lat="48.7236" lon="7.33764">
        <ele>462.256104</ele>
        <time>2010-07-15T17:33:25Z</time>
      </trkpt>
      <trkpt lat="48.7237" lon="7.33781">
        <ele>464.256104</ele>
        <time>2010-07-15T17:33:34Z</time>
      </trkpt>
      <trkpt lat="48.72385" lon="7.33795">
        <ele>465.771729</ele>
        <time>2010-07-15T17:33:38Z</time>
      </trkpt>
      <trkpt lat="48.72399" lon="7.33806">
        <ele>467.287354</ele>
        <time>2010-07-15T17:33:41Z</time>
      </trkpt>
      <trkpt lat="48.72411" lon="7.33824">
        <ele>471.263916</ele>
        <time>2010-07-15T17:33:45Z</time>
      </trkpt>
      <trkpt lat="48.72422" lon="7.33836">
        <ele>470.638916</ele>
        <time>2010-07-15T17:33:48Z</time>
      </trkpt>
      <trkpt lat="48.72436" lon="7.33847">
        <ele>468.060791</ele>
        <time>2010-07-15T17:33:51Z</time>
      </trkpt>
      <trkpt lat="48.72448" lon="7.33862">
        <ele>469.654541</ele>
        <time>2010-07-15T17:33:54Z</time>
      </trkpt>
      <trkpt lat="48.72458" lon="7.33882">
        <ele>466.232666</ele>
        <time>2010-07-15T17:33:57Z</time>
      </trkpt>
      <trkpt lat="48.72471" lon="7.33897">
        <ele>466.021729</ele>
        <time>2010-07-15T17:34:00Z</time>
      </trkpt>
      <trkpt lat="48.72486" lon="7.33908">
        <ele>461.365479</ele>
        <time>2010-07-15T17:34:02Z</time>
      </trkpt>
      <trkpt lat="48.72502" lon="7.33918">
        <ele>451.201416</ele>
        <time>2010-07-15T17:34:04Z</time>
      </trkpt>
      <trkpt lat="48.72514" lon="7.33928">
        <ele>446.920166</ele>
        <time>2010-07-15T17:34:06Z</time>
      </trkpt>
      <trkpt lat="48.72527" lon="7.33943">
        <ele>439.420166</ele>
        <time>2010-07-15T17:34:09Z</time>
      </trkpt>
      <trkpt lat="48.72539" lon="7.33957">
        <ele>433.763916</ele>
        <time>2010-07-15T17:34:12Z</time>
      </trkpt>
      <trkpt lat="48.7255" lon="7.33969">
        <ele>429.998291</ele>
        <time>2010-07-15T17:34:15Z</time>
      </trkpt>
      <trkpt lat="48.72565" lon="7.33983">
        <ele>427.185791</ele>
        <time>2010-07-15T17:34:19Z</time>
      </trkpt>
      <trkpt lat="48.72578" lon="7.33997">
        <ele>425.834229</ele>
        <time>2010-07-15T17:34:23Z</time>
      </trkpt>
      <trkpt lat="48.7259" lon="7.34015">
        <ele>426.467041</ele>
        <time>2010-07-15T17:34:27Z</time>
      </trkpt>
      <trkpt lat="48.72602" lon="7.34027">
        <ele>427.459229</ele>
        <time>2010-07-15T17:34:31Z</time>
      </trkpt>
      <trkpt lat="48.72615" lon="7.34039">
        <ele>425.935791</ele>
        <time>2010-07-15T17:34:36Z</time>
      </trkpt>
      <trkpt lat="48.72631" lon="7.34057">
        <ele>426.685791</ele>
        <time>2010-07-15T17:34:41Z</time>
      </trkpt>
      <trkpt lat="48.72642" lon="7.3407">
        <ele>419.326416</ele>
        <time>2010-07-15T17:34:44Z</time>
      </trkpt>
      <trkpt lat="48.72652" lon="7.34083">
        <ele>416.873291</ele>
        <time>2010-07-15T17:34:49Z</time>
      </trkpt>
      <trkpt lat="48.72662" lon="7.34095">
        <ele>410.592041</ele>
        <time>2010-07-15T17:34:57Z</time>
      </trkpt>
      <trkpt lat="48.7266" lon="7.34117">
        <ele>409.857666</ele>
        <time>2010-07-15T17:35:04Z</time>
      </trkpt>
      <trkpt lat="48.72663" lon="7.34138">
        <ele>410.099854</ele>
        <time>2010-07-15T17:35:11Z</time>
      </trkpt>
      <trkpt lat="48.72669" lon="7.34156">
        <ele>413.779541</ele>
        <time>2010-07-15T17:35:18Z</time>
      </trkpt>
      <trkpt lat="48.72676" lon="7.34174">
        <ele>414.927979</ele>
        <time>2010-07-15T17:35:25Z</time>
      </trkpt>
      <trkpt lat="48.72686" lon="7.34191">
        <ele>411.795166</ele>
        <time>2010-07-15T17:35:31Z</time>
      </trkpt>
      <trkpt lat="48.72695" lon="7.34206">
        <ele>406.576416</ele>
        <time>2010-07-15T17:35:37Z</time>
      </trkpt>
      <trkpt lat="48.72707" lon="7.34219">
        <ele>400.545166</ele>
        <time>2010-07-15T17:35:43Z</time>
      </trkpt>
      <trkpt lat="48.72717" lon="7.34237">
        <ele>399.006104</ele>
        <time>2010-07-15T17:35:48Z</time>
      </trkpt>
      <trkpt lat="48.72729" lon="7.34245">
        <ele>393.779541</ele>
        <time>2010-07-15T17:35:54Z</time>
      </trkpt>
      <trkpt lat="48.72739" lon="7.34263">
        <ele>393.552979</ele>
        <time>2010-07-15T17:36:01Z</time>
      </trkpt>
      <trkpt lat="48.72747" lon="7.34283">
        <ele>394.724854</ele>
        <time>2010-07-15T17:36:09Z</time>
      </trkpt>
      <trkpt lat="48.72754" lon="7.34303">
        <ele>395.943604</ele>
        <time>2010-07-15T17:36:17Z</time>
      </trkpt>
      <trkpt lat="48.72765" lon="7.34317">
        <ele>390.802979</ele>
        <time>2010-07-15T17:36:23Z</time>
      </trkpt>
      <trkpt lat="48.72778" lon="7.34325">
        <ele>387.052979</ele>
        <time>2010-07-15T17:36:31Z</time>
      </trkpt>
      <trkpt lat="48.72789" lon="7.34341">
        <ele>386.107666</ele>
        <time>2010-07-15T17:36:35Z</time>
      </trkpt>
      <trkpt lat="48.72805" lon="7.34349">
        <ele>383.959229</ele>
        <time>2010-07-15T17:36:41Z</time>
      </trkpt>
      <trkpt lat="48.72823" lon="7.34361">
        <ele>383.279541</ele>
        <time>2010-07-15T17:36:46Z</time>
      </trkpt>
      <trkpt lat="48.72837" lon="7.34359">
        <ele>383.459229</ele>
        <time>2010-07-15T17:36:50Z</time>
      </trkpt>
      <trkpt lat="48.72851" lon="7.34355">
        <ele>380.568604</ele>
        <time>2010-07-15T17:36:56Z</time>
      </trkpt>
      <trkpt lat="48.72863" lon="7.34346">
        <ele>378.271729</ele>
        <time>2010-07-15T17:37:00Z</time>
      </trkpt>
      <trkpt lat="48.72877" lon="7.34339">
        <ele>377.638916</ele>
        <time>2010-07-15T17:37:06Z</time>
      </trkpt>
      <trkpt lat="48.72891" lon="7.34336">
        <ele>377.201416</ele>
        <time>2010-07-15T17:37:11Z</time>
      </trkpt>
      <trkpt lat="48.72905" lon="7.34342">
        <ele>376.365479</ele>
        <time>2010-07-15T17:37:15Z</time>
      </trkpt>
      <trkpt lat="48.7292" lon="7.34349">
        <ele>371.810791</ele>
        <time>2010-07-15T17:37:19Z</time>
      </trkpt>
      <trkpt lat="48.72937" lon="7.34356">
        <ele>368.943604</ele>
        <time>2010-07-15T17:37:24Z</time>
      </trkpt>
      <trkpt lat="48.7295" lon="7.34362">
        <ele>364.217041</ele>
        <time>2010-07-15T17:37:28Z</time>
      </trkpt>
      <trkpt lat="48.72965" lon="7.34372">
        <ele>361.302979</ele>
        <time>2010-07-15T17:37:33Z</time>
      </trkpt>
      <trkpt lat="48.72981" lon="7.34376">
        <ele>361.092041</ele>
        <time>2010-07-15T17:37:38Z</time>
      </trkpt>
      <trkpt lat="48.72995" lon="7.34386">
        <ele>363.474854</ele>
        <time>2010-07-15T17:37:42Z</time>
      </trkpt>
      <trkpt lat="48.73387" lon="7.34839">
        <ele>281.021729</ele>
        <time>2010-07-15T17:39:48Z</time>
      </trkpt>
    </trkseg>
  </trk>
</gpx>